Time,TemperatureF,DewpointF,PressureIn,WindDirection,WindDirectionDegrees,WindSpeedMPH,WindSpeedGustMPH,Humidity,HourlyPrecipIn,Conditions,Clouds,dailyrainin,SolarRadiationWatts/m^2,SoftwareType,DateUTC
2013-05-24 00:02:00,66.0,59.0,-100.00,ESE,109,4.0,13.0,79,0.00,,,0.00,0.000000,,2013-05-24 10:02:00,
2013-05-24 00:12:00,66.0,59.0,-100.00,ESE,109,4.0,13.0,79,0.00,,,0.00,0.000000,,2013-05-24 10:12:00,
2013-05-24 00:22:00,66.0,59.0,-100.00,ESE,109,4.0,13.0,79,0.00,,,0.00,0.000000,,2013-05-24 10:22:00,
2013-05-24 00:32:00,66.0,59.0,-100.00,ESE,109,4.0,13.0,79,0.00,,,0.00,0.000000,,2013-05-24 10:32:00,
2013-05-24 00:52:00,66.0,60.0,-100.00,ESE,108,5.0,14.0,80,0.00,,,0.00,0.000000,,2013-05-24 10:52:00,
2013-05-24 01:02:00,66.0,60.0,-100.00,ESE,108,5.0,14.0,80,0.00,,,0.00,0.000000,,2013-05-24 11:02:00,
2013-05-24 01:12:00,66.0,60.0,-100.00,ESE,108,5.0,14.0,80,0.00,,,0.00,0.000000,,2013-05-24 11:12:00,
2013-05-24 01:22:00,66.0,60.0,-100.00,ESE,108,5.0,14.0,80,0.00,,,0.00,0.000000,,2013-05-24 11:22:00,
2013-05-24 01:32:00,66.0,60.0,-100.00,ESE,108,5.0,14.0,80,0.00,,,0.00,0.000000,,2013-05-24 11:32:00,
2013-05-24 01:52:00,65.0,60.0,-100.00,ESE,123,6.0,17.0,83,0.00,,,0.00,0.000000,,2013-05-24 11:52:00,
2013-05-24 02:02:00,65.0,60.0,-100.00,ESE,123,6.0,17.0,83,0.00,,,0.00,0.000000,,2013-05-24 12:02:00,
2013-05-24 02:11:00,65.0,60.0,-100.00,ESE,123,6.0,17.0,83,0.00,,,0.00,0.000000,,2013-05-24 12:11:00,
2013-05-24 02:21:00,65.0,60.0,-100.00,ESE,123,6.0,17.0,83,0.00,,,0.00,0.000000,,2013-05-24 12:21:00,
2013-05-24 02:32:00,65.0,60.0,-100.00,ESE,123,6.0,17.0,83,0.00,,,0.00,0.000000,,2013-05-24 12:32:00,
2013-05-24 03:02:00,65.0,60.0,-100.00,ESE,104,3.0,13.0,84,0.00,,,0.00,0.000000,,2013-05-24 13:02:00,
2013-05-24 03:11:00,65.0,60.0,-100.00,ESE,104,3.0,13.0,84,0.00,,,0.00,0.000000,,2013-05-24 13:11:00,
2013-05-24 03:21:00,65.0,60.0,-100.00,ESE,104,3.0,13.0,84,0.00,,,0.00,0.000000,,2013-05-24 13:21:00,
2013-05-24 03:31:00,65.0,60.0,-100.00,ESE,104,3.0,13.0,84,0.00,,,0.00,0.000000,,2013-05-24 13:31:00,
2013-05-24 03:52:00,65.0,59.0,-100.00,SE,134,2.0,15.0,80,0.00,,,0.00,0.000000,,2013-05-24 13:52:00,
2013-05-24 04:01:00,65.0,59.0,-100.00,SE,134,2.0,15.0,80,0.00,,,0.00,0.000000,,2013-05-24 14:01:00,
2013-05-24 04:11:00,65.0,59.0,-100.00,SE,134,2.0,15.0,80,0.00,,,0.00,0.000000,,2013-05-24 14:11:00,
2013-05-24 04:21:00,65.0,59.0,-100.00,SE,134,2.0,15.0,80,0.00,,,0.00,0.000000,,2013-05-24 14:21:00,
2013-05-24 04:31:00,65.0,59.0,-100.00,SE,134,2.0,15.0,80,0.00,,,0.00,0.000000,,2013-05-24 14:31:00,
2013-05-24 04:52:00,64.0,57.0,-100.00,SE,128,3.0,8.0,78,0.00,,,0.00,0.000000,,2013-05-24 14:52:00,
2013-05-24 05:02:00,64.0,57.0,-100.00,SE,128,3.0,8.0,78,0.00,,,0.00,0.000000,,2013-05-24 15:02:00,
2013-05-24 05:11:00,64.0,57.0,-100.00,SE,128,3.0,8.0,78,0.00,,,0.00,0.000000,,2013-05-24 15:11:00,
2013-05-24 05:21:00,64.0,57.0,-100.00,SE,128,3.0,8.0,78,0.00,,,0.00,0.000000,,2013-05-24 15:21:00,
2013-05-24 05:32:00,64.0,57.0,-100.00,SE,128,3.0,8.0,78,0.00,,,0.00,0.000000,,2013-05-24 15:32:00,
2013-05-24 06:03:00,66.0,57.0,-100.00,SE,127,5.0,11.0,72,0.00,,,0.00,0.000000,,2013-05-24 16:03:00,
2013-05-24 06:12:00,66.0,57.0,-100.00,SE,127,5.0,11.0,72,0.00,,,0.00,0.000000,,2013-05-24 16:12:00,
2013-05-24 06:22:00,66.0,57.0,-100.00,SE,127,5.0,11.0,72,0.00,,,0.00,0.000000,,2013-05-24 16:22:00,
2013-05-24 06:32:00,66.0,57.0,-100.00,SE,127,5.0,11.0,72,0.00,,,0.00,0.000000,,2013-05-24 16:32:00,
2013-05-24 06:52:00,66.0,54.0,-100.00,WNW,292,4.0,14.0,66,0.00,,,0.00,24.000000,,2013-05-24 16:52:00,
2013-05-24 07:02:00,66.0,54.0,-100.00,WNW,292,4.0,14.0,66,0.00,,,0.00,24.000000,,2013-05-24 17:02:00,
2013-05-24 07:12:00,66.0,54.0,-100.00,WNW,292,4.0,14.0,66,0.00,,,0.00,24.000000,,2013-05-24 17:12:00,
2013-05-24 07:22:00,66.0,54.0,-100.00,WNW,292,4.0,14.0,66,0.00,,,0.00,24.000000,,2013-05-24 17:22:00,
2013-05-24 07:32:00,66.0,54.0,-100.00,WNW,292,4.0,14.0,66,0.00,,,0.00,24.000000,,2013-05-24 17:32:00,
2013-05-24 07:52:00,74.0,59.0,-100.00,South,185,2.0,13.0,60,0.00,,,0.00,337.000000,,2013-05-24 17:52:00,
2013-05-24 08:01:00,74.0,59.0,-100.00,South,185,2.0,13.0,60,0.00,,,0.00,337.000000,,2013-05-24 18:01:00,
2013-05-24 08:11:00,74.0,59.0,-100.00,South,185,2.0,13.0,60,0.00,,,0.00,337.000000,,2013-05-24 18:11:00,
2013-05-24 08:21:00,74.0,59.0,-100.00,South,185,2.0,13.0,60,0.00,,,0.00,337.000000,,2013-05-24 18:21:00,
2013-05-24 08:31:00,74.0,59.0,-100.00,South,185,2.0,13.0,60,0.00,,,0.00,337.000000,,2013-05-24 18:31:00,
2013-05-24 09:01:00,76.0,63.0,-100.00,SSE,153,2.0,7.0,65,0.00,,,0.00,526.000000,,2013-05-24 19:01:00,
2013-05-24 09:11:00,76.0,63.0,-100.00,SSE,153,2.0,7.0,65,0.00,,,0.00,526.000000,,2013-05-24 19:11:00,
2013-05-24 09:21:00,76.0,63.0,-100.00,SSE,153,2.0,7.0,65,0.00,,,0.00,526.000000,,2013-05-24 19:21:00,
2013-05-24 09:31:00,76.0,63.0,-100.00,SSE,153,2.0,7.0,65,0.00,,,0.00,526.000000,,2013-05-24 19:31:00,
2013-05-24 10:02:00,73.0,62.0,-100.00,ENE,60,6.0,15.0,68,0.00,,,0.00,734.000000,,2013-05-24 20:02:00,
2013-05-24 10:11:00,73.0,62.0,-100.00,ENE,60,6.0,15.0,68,0.00,,,0.00,734.000000,,2013-05-24 20:11:00,
2013-05-24 10:21:00,73.0,62.0,-100.00,ENE,60,6.0,15.0,68,0.00,,,0.00,734.000000,,2013-05-24 20:21:00,
2013-05-24 10:31:00,73.0,62.0,-100.00,ENE,60,6.0,15.0,68,0.00,,,0.00,734.000000,,2013-05-24 20:31:00,
2013-05-24 10:52:00,77.0,65.0,-100.00,NE,39,3.0,10.0,66,0.00,,,0.00,1020.000000,,2013-05-24 20:52:00,
2013-05-24 11:01:00,77.0,65.0,-100.00,NE,39,3.0,10.0,66,0.00,,,0.00,1020.000000,,2013-05-24 21:01:00,
2013-05-24 11:11:00,77.0,65.0,-100.00,NE,39,3.0,10.0,66,0.00,,,0.00,1020.000000,,2013-05-24 21:11:00,
2013-05-24 11:21:00,77.0,65.0,-100.00,NE,39,3.0,10.0,66,0.00,,,0.00,1020.000000,,2013-05-24 21:21:00,
2013-05-24 11:32:00,77.0,65.0,-100.00,NE,39,3.0,10.0,66,0.00,,,0.00,1020.000000,,2013-05-24 21:32:00,
2013-05-24 11:53:00,77.0,66.0,-100.00,NNW,347,2.0,9.0,68,0.00,,,-99.99,907.000000,,2013-05-24 21:53:00,
2013-05-24 12:02:00,77.0,66.0,-100.00,NNW,347,2.0,9.0,68,0.00,,,-99.99,907.000000,,2013-05-24 22:02:00,
2013-05-24 12:12:00,77.0,66.0,-100.00,NNW,347,2.0,9.0,68,0.00,,,-99.99,907.000000,,2013-05-24 22:12:00,
2013-05-24 12:22:00,77.0,66.0,-100.00,NNW,347,2.0,9.0,68,0.00,,,-99.99,907.000000,,2013-05-24 22:22:00,
2013-05-24 12:32:00,77.0,66.0,-100.00,NNW,347,2.0,9.0,68,0.00,,,-99.99,907.000000,,2013-05-24 22:32:00,
2013-05-24 13:02:00,76.0,61.0,-100.00,West,277,3.0,18.0,60,0.00,,,0.00,1167.000000,,2013-05-24 23:02:00,
2013-05-24 13:11:00,76.0,61.0,-100.00,West,277,3.0,18.0,60,0.00,,,0.00,1167.000000,,2013-05-24 23:11:00,
2013-05-24 13:22:00,76.0,61.0,-100.00,West,277,3.0,18.0,60,0.00,,,0.00,1167.000000,,2013-05-24 23:22:00,
2013-05-24 13:32:00,76.0,61.0,-100.00,West,277,3.0,18.0,60,0.00,,,0.00,1167.000000,,2013-05-24 23:32:00,
2013-05-24 13:52:00,75.0,62.0,-100.00,ENE,67,6.0,17.0,65,0.00,,,0.00,951.000000,,2013-05-24 23:52:00,
2013-05-24 14:01:00,75.0,62.0,-100.00,ENE,67,6.0,17.0,65,0.00,,,0.00,951.000000,,2013-05-25 00:01:00,
2013-05-24 14:11:00,75.0,62.0,-100.00,ENE,67,6.0,17.0,65,0.00,,,0.00,951.000000,,2013-05-25 00:11:00,
2013-05-24 14:21:00,75.0,62.0,-100.00,ENE,67,6.0,17.0,65,0.00,,,0.00,951.000000,,2013-05-25 00:21:00,
2013-05-24 14:32:00,75.0,62.0,-100.00,ENE,67,6.0,17.0,65,0.00,,,0.00,951.000000,,2013-05-25 00:32:00,
2013-05-24 15:01:00,75.0,62.0,-100.00,ENE,63,6.0,18.0,65,0.00,,,0.00,1155.000000,,2013-05-25 01:01:00,
2013-05-24 15:11:00,75.0,62.0,-100.00,ENE,63,6.0,18.0,65,0.00,,,0.00,1155.000000,,2013-05-25 01:11:00,
2013-05-24 15:22:00,75.0,62.0,-100.00,ENE,63,6.0,18.0,65,0.00,,,0.00,1155.000000,,2013-05-25 01:22:00,
2013-05-24 15:32:00,75.0,62.0,-100.00,ENE,63,6.0,18.0,65,0.00,,,0.00,1155.000000,,2013-05-25 01:32:00,
2013-05-24 15:52:00,75.0,62.0,-100.00,SSW,207,6.0,22.0,64,0.00,,,0.00,951.000000,,2013-05-25 01:52:00,
2013-05-24 16:01:00,75.0,62.0,-100.00,SSW,207,6.0,22.0,64,0.00,,,0.00,951.000000,,2013-05-25 02:01:00,
2013-05-24 16:11:00,75.0,62.0,-100.00,SSW,207,6.0,22.0,64,0.00,,,0.00,951.000000,,2013-05-25 02:11:00,
2013-05-24 16:21:00,75.0,62.0,-100.00,SSW,207,6.0,22.0,64,0.00,,,0.00,951.000000,,2013-05-25 02:21:00,
2013-05-24 16:31:00,75.0,62.0,-100.00,SSW,207,6.0,22.0,64,0.00,,,0.00,951.000000,,2013-05-25 02:31:00,
2013-05-24 16:52:00,72.0,59.0,-100.00,WNW,288,7.0,20.0,64,0.00,,,0.00,683.000000,,2013-05-25 02:52:00,
2013-05-24 17:01:00,72.0,59.0,-100.00,WNW,288,7.0,20.0,64,0.00,,,0.00,683.000000,,2013-05-25 03:01:00,
2013-05-24 17:11:00,72.0,59.0,-100.00,WNW,288,7.0,20.0,64,0.00,,,0.00,683.000000,,2013-05-25 03:11:00,
2013-05-24 17:21:00,72.0,59.0,-100.00,WNW,288,7.0,20.0,64,0.00,,,0.00,683.000000,,2013-05-25 03:21:00,
2013-05-24 17:32:00,72.0,59.0,-100.00,WNW,288,7.0,20.0,64,0.00,,,0.00,683.000000,,2013-05-25 03:32:00,
2013-05-24 18:02:00,73.0,61.0,-100.00,SSW,213,5.0,21.0,65,0.00,,,0.00,106.000000,,2013-05-25 04:02:00,
2013-05-24 18:12:00,73.0,61.0,-100.00,SSW,213,5.0,21.0,65,0.00,,,0.00,106.000000,,2013-05-25 04:12:00,
2013-05-24 18:23:00,73.0,61.0,-100.00,SSW,213,5.0,21.0,65,0.00,,,0.00,106.000000,,2013-05-25 04:23:00,
2013-05-24 18:32:00,73.0,61.0,-100.00,SSW,213,5.0,21.0,65,0.00,,,0.00,106.000000,,2013-05-25 04:32:00,
2013-05-24 18:53:00,66.0,57.0,-100.00,NW,311,7.0,20.0,72,0.00,,,0.00,78.000000,,2013-05-25 04:53:00,
2013-05-24 19:02:00,66.0,57.0,-100.00,NW,311,7.0,20.0,72,0.00,,,0.00,78.000000,,2013-05-25 05:02:00,
2013-05-24 19:12:00,66.0,57.0,-100.00,NW,311,7.0,20.0,72,0.00,,,0.00,78.000000,,2013-05-25 05:12:00,
2013-05-24 19:22:00,66.0,57.0,-100.00,NW,311,7.0,20.0,72,0.00,,,0.00,78.000000,,2013-05-25 05:22:00,
2013-05-24 19:32:00,66.0,57.0,-100.00,NW,311,7.0,20.0,72,0.00,,,0.00,78.000000,,2013-05-25 05:32:00,
2013-05-24 19:52:00,66.0,60.0,-100.00,NE,56,7.0,25.0,80,0.00,,,0.00,13.000000,,2013-05-25 05:52:00,
2013-05-24 20:02:00,66.0,60.0,-100.00,NE,56,7.0,25.0,80,0.00,,,0.00,13.000000,,2013-05-25 06:02:00,
2013-05-24 20:12:00,66.0,60.0,-100.00,NE,56,7.0,25.0,80,0.00,,,0.00,13.000000,,2013-05-25 06:12:00,
2013-05-24 20:21:00,66.0,60.0,-100.00,NE,56,7.0,25.0,80,0.00,,,0.00,13.000000,,2013-05-25 06:21:00,
2013-05-24 20:32:00,66.0,60.0,-100.00,NE,56,7.0,25.0,80,0.00,,,0.00,13.000000,,2013-05-25 06:32:00,
2013-05-24 20:52:00,66.0,57.0,-100.00,East,81,10.0,26.0,74,0.00,,,0.00,0.000000,,2013-05-25 06:52:00,
2013-05-24 21:01:00,66.0,57.0,-100.00,East,81,10.0,26.0,74,0.00,,,0.00,0.000000,,2013-05-25 07:01:00,
2013-05-24 21:11:00,66.0,57.0,-100.00,East,81,10.0,26.0,74,0.00,,,0.00,0.000000,,2013-05-25 07:11:00,
2013-05-24 21:21:00,66.0,57.0,-100.00,East,81,10.0,26.0,74,0.00,,,0.00,0.000000,,2013-05-25 07:21:00,
2013-05-24 21:31:00,66.0,57.0,-100.00,East,81,10.0,26.0,74,0.00,,,0.00,0.000000,,2013-05-25 07:31:00,
2013-05-24 22:02:00,66.0,58.0,-100.00,NE,35,11.0,30.0,76,0.00,,,0.00,0.000000,,2013-05-25 08:02:00,
2013-05-24 22:11:00,66.0,58.0,-100.00,NE,35,11.0,30.0,76,0.00,,,0.00,0.000000,,2013-05-25 08:11:00,
2013-05-24 22:22:00,66.0,58.0,-100.00,NE,35,11.0,30.0,76,0.00,,,0.00,0.000000,,2013-05-25 08:22:00,
2013-05-24 22:31:00,66.0,58.0,-100.00,NE,35,11.0,30.0,76,0.00,,,0.00,0.000000,,2013-05-25 08:31:00,
2013-05-24 22:52:00,64.0,57.0,-100.00,NNE,29,12.0,32.0,77,0.00,,,0.00,0.000000,,2013-05-25 08:52:00,
2013-05-24 23:01:00,64.0,57.0,-100.00,NNE,29,12.0,32.0,77,0.00,,,0.00,0.000000,,2013-05-25 09:01:00,
2013-05-24 23:11:00,64.0,57.0,-100.00,NNE,29,12.0,32.0,77,0.00,,,0.00,0.000000,,2013-05-25 09:11:00,
2013-05-24 23:21:00,64.0,57.0,-100.00,NNE,29,12.0,32.0,77,0.00,,,0.00,0.000000,,2013-05-25 09:21:00,
2013-05-24 23:33:00,64.0,57.0,-100.00,NNE,29,12.0,32.0,77,0.00,,,0.00,0.000000,,2013-05-25 09:33:00,
2013-05-24 23:53:00,65.0,58.0,-100.00,ESE,112,6.0,24.0,78,0.00,,,-99.99,0.000000,,2013-05-25 09:53:00,